Time;durP1;ratioP1;P1;durP2;ratioP2;P2;SDS_P1;SDS_P2;PMS_P1;PMS_P2;Temp;Humidity;BMP_temperature;BMP_pressure;BME280_temperature;BME280_humidity;BME280_pressure;Samples;Min_cycle;Max_cycle;Signal;HPM_P1;HPM_P2
2023/05/09 00:02:00;;;;;;;;;;;;;;;20.20;65.16;101503.41;4931882;28;19933;-83
2023/05/09 00:04:28;;;;;;;;;;;;;;;20.12;64.60;101492.66;4929255;28;19926;-82
2023/05/09 00:06:54;;;;;;;;;;;;;;;20.11;65.60;101501.75;4960977;28;19922;-82
2023/05/09 00:09:21;;;;;;;;;;;;;;;20.17;65.18;101503.75;4917894;28;19992;-83
2023/05/09 00:11:51;;;;;;;;;;;;;;;20.22;66.58;101493.28;4922564;28;19948;-82
2023/05/09 00:14:17;;;;;;;;;;;;;;;20.21;63.92;101499.66;4917396;28;20286;-83
2023/05/09 00:16:48;;;;;;;;;;;;;;;20.22;66.55;101495.97;4918946;28;19957;-83
2023/05/09 00:19:15;;;;;;;;;;;;;;;20.31;66.30;101495.91;4910840;28;19922;-82
2023/05/09 00:21:43;;;;;;;;;;;;;;;20.25;63.71;101492.91;4879741;28;19929;-82
2023/05/09 00:24:09;;;;;;;;;;;;;;;20.24;63.47;101491.25;4901957;28;20458;-83
2023/05/09 00:26:36;;;;;;;;;;;;;;;20.24;65.70;101487.69;4900730;28;20474;-83
2023/05/09 00:29:03;;;;;;;;;;;;;;;20.27;65.15;101498.97;4895638;28;19922;-82
2023/05/09 00:31:32;;;;;;;;;;;;;;;20.19;63.81;101490.09;4892917;28;19933;-82
2023/05/09 00:34:05;;;;;;;;;;;;;;;19.81;64.14;101444.16;4903143;28;19926;-83
2023/05/09 00:36:45;;;;;;;;;;;;;;;19.93;64.70;101496.66;4901662;28;20036;-82
2023/05/09 00:39:15;;;;;;;;;;;;;;;19.82;65.06;101497.84;4890833;28;19937;-83
2023/05/09 00:41:41;;;;;;;;;;;;;;;19.75;65.29;101504.97;4908207;28;20464;-83
2023/05/09 00:44:08;;;;;;;;;;;;;;;19.77;65.16;101507.50;4895795;28;20275;-82
2023/05/09 00:46:34;;;;;;;;;;;;;;;19.80;64.59;101499.88;4896034;28;19933;-83
2023/05/09 00:49:04;;;;;;;;;;;;;;;19.80;64.95;101490.97;4906571;28;20016;-82
2023/05/09 00:51:40;;;;;;;;;;;;;;;19.82;64.52;101484.38;4890068;28;20725;-82
2023/05/09 00:54:10;;;;;;;;;;;;;;;19.84;66.21;101489.63;4892754;28;19929;-81
2023/05/09 00:56:38;;;;;;;;;;;;;;;19.35;64.84;101415.22;4895342;28;20543;-82
2023/05/09 00:59:05;;;;;;;;;;;;;;;19.87;65.89;101481.16;4900813;28;20716;-83
2023/05/09 01:01:32;;;;;;;;;;;;;;;19.88;64.53;101490.09;4894672;28;20130;-81
2023/05/09 01:03:59;;;;;;;;;;;;;;;19.87;64.67;101491.13;4902655;28;19929;-81
2023/05/09 01:06:58;;;;;;;;;;;;;;;19.84;64.65;101486.91;4899847;28;20342;-81
2023/05/09 01:09:28;;;;;;;;;;;;;;;19.80;64.86;101486.41;4847333;28;19929;-81
2023/05/09 01:12:14;;;;;;;;;;;;;;;19.75;64.77;101477.19;4878683;28;20056;-81
2023/05/09 01:14:56;;;;;;;;;;;;;;;19.64;65.26;101481.91;4895726;28;20145;-81
2023/05/09 01:17:31;;;;;;;;;;;;;;;19.62;65.09;101477.72;4906623;28;20489;-81
2023/05/09 01:20:10;;;;;;;;;;;;;;;19.60;65.76;101479.75;4917490;28;20265;-83
2023/05/09 01:22:42;;;;;;;;;;;;;;;19.65;67.24;101482.75;4899141;28;20465;-81
2023/05/09 01:25:28;;;;;;;;;;;;;;;19.66;66.42;101487.16;4901881;28;20407;-82
2023/05/09 01:28:09;;;;;;;;;;;;;;;19.63;66.50;101484.78;4890215;28;20336;-81
2023/05/09 01:30:41;;;;;;;;;;;;;;;19.60;66.79;101480.59;4895374;28;19976;-83
2023/05/09 01:33:11;;;;;;;;;;;;;;;19.68;66.88;101477.03;4883843;28;20149;-82
2023/05/09 01:35:39;;;;;;;;;;;;;;;19.76;68.01;101482.41;4900418;28;19930;-83
2023/05/09 01:38:09;;;;;;;;;;;;;;;19.42;67.50;101423.44;4896039;28;19928;-83
2023/05/09 01:40:37;;;;;;;;;;;;;;;19.29;68.16;101423.97;4881399;28;19937;-81
2023/05/09 01:43:09;;;;;;;;;;;;;;;19.19;68.82;101424.19;4902706;28;19989;-82
2023/05/09 01:45:43;;;;;;;;;;;;;;;19.10;69.37;101419.00;4906723;28;19937;-82
2023/05/09 01:48:16;;;;;;;;;;;;;;;19.41;69.71;101476.44;4888642;28;19921;-82
2023/05/09 01:50:46;;;;;;;;;;;;;;;19.36;69.96;101468.03;4913686;28;19921;-82
2023/05/09 01:53:13;;;;;;;;;;;;;;;19.39;71.01;101465.03;4908256;28;20017;-82
2023/05/09 01:55:44;;;;;;;;;;;;;;;19.45;69.17;101465.34;4925704;28;20428;-81
2023/05/09 01:58:15;;;;;;;;;;;;;;;19.39;69.31;101470.41;4913192;28;20021;-81
2023/05/09 02:00:42;;;;;;;;;;;;;;;19.31;69.42;101469.59;4894599;28;19922;-81
2023/05/09 02:03:09;;;;;;;;;;;;;;;19.29;69.23;101471.59;4936420;28;19945;-82
2023/05/09 02:05:37;;;;;;;;;;;;;;;19.19;68.74;101466.41;4957373;28;19969;-83
2023/05/09 02:08:04;;;;;;;;;;;;;;;19.12;68.61;101468.09;4952097;28;19940;-83
2023/05/09 02:10:31;;;;;;;;;;;;;;;19.07;68.86;101465.09;4952636;28;19922;-82
2023/05/09 02:12:58;;;;;;;;;;;;;;;19.03;68.87;101469.13;4958026;28;19922;-82
2023/05/09 02:15:25;;;;;;;;;;;;;;;19.04;68.90;101468.97;4954543;28;20044;-83
2023/05/09 02:17:55;;;;;;;;;;;;;;;18.82;68.83;101435.53;4939509;28;20114;-83
2023/05/09 02:20:25;;;;;;;;;;;;;;;19.01;68.29;101461.25;4939955;28;20279;-83
2023/05/09 02:22:52;;;;;;;;;;;;;;;19.05;67.65;101464.41;4963289;28;20363;-83
2023/05/09 02:25:22;;;;;;;;;;;;;;;18.73;67.78;101417.69;4945373;28;19925;-82
2023/05/09 02:27:52;;;;;;;;;;;;;;;19.05;67.91;101469.81;4939582;28;20236;-82
2023/05/09 02:30:23;;;;;;;;;;;;;;;18.94;67.85;101466.47;4927999;28;20526;-83
2023/05/09 02:32:55;;;;;;;;;;;;;;;18.56;67.96;101416.88;4939358;28;19926;-82
2023/05/09 02:35:28;;;;;;;;;;;;;;;18.53;68.54;101417.22;4938331;28;19952;-83
2023/05/09 02:37:58;;;;;;;;;;;;;;;18.91;68.21;101469.50;4944426;28;20000;-82
2023/05/09 02:40:25;;;;;;;;;;;;;;;18.94;68.17;101462.94;4947654;28;19929;-81
2023/05/09 02:42:52;;;;;;;;;;;;;;;18.92;67.90;101462.25;4939866;28;19926;-82
2023/05/09 02:45:18;;;;;;;;;;;;;;;18.89;67.77;101466.13;4927228;28;20201;-82
2023/05/09 02:47:48;;;;;;;;;;;;;;;18.83;68.08;101465.97;4952151;28;19976;-82
2023/05/09 02:50:16;;;;;;;;;;;;;;;18.79;67.37;101462.78;4946401;28;20127;-82
2023/05/09 02:52:43;;;;;;;;;;;;;;;18.82;67.34;101465.13;4930111;28;20406;-82
2023/05/09 02:55:10;;;;;;;;;;;;;;;18.80;67.19;101464.47;4947459;28;19965;-82
2023/05/09 02:57:37;;;;;;;;;;;;;;;18.80;67.01;101464.47;4958634;28;19968;-82
2023/05/09 03:00:08;;;;;;;;;;;;;;;18.79;68.19;101466.31;4957938;28;19979;-82
2023/05/09 03:02:35;;;;;;;;;;;;;;;18.74;67.08;101462.44;4937116;28;20058;-83
2023/05/09 03:05:03;;;;;;;;;;;;;;;18.75;67.17;101464.09;4946999;28;20591;-82
2023/05/09 03:07:30;;;;;;;;;;;;;;;18.75;67.31;101464.09;4957886;28;19921;-83
2023/05/09 03:09:56;;;;;;;;;;;;;;;18.32;67.42;101398.91;4950281;28;19925;-82
2023/05/09 03:12:23;;;;;;;;;;;;;;;18.69;67.39;101456.69;4947047;28;20308;-82
2023/05/09 03:14:50;;;;;;;;;;;;;;;18.71;67.40;101449.28;4942789;28;19925;-83
2023/05/09 03:17:20;;;;;;;;;;;;;;;18.70;67.15;101450.31;4954309;28;20304;-82
2023/05/09 03:19:48;;;;;;;;;;;;;;;18.38;66.85;101398.25;4960755;28;19929;-82
2023/05/09 03:22:15;;;;;;;;;;;;;;;18.63;67.40;101454.69;4980054;28;20009;-83
2023/05/09 03:24:43;;;;;;;;;;;;;;;18.21;67.53;101402.78;4932737;28;20000;-82
2023/05/09 03:27:10;;;;;;;;;;;;;;;18.57;67.67;101454.38;4937517;28;20257;-81
2023/05/09 03:29:36;;;;;;;;;;;;;;;18.62;67.35;101455.69;4927522;28;20331;-83
2023/05/09 03:32:03;;;;;;;;;;;;;;;18.74;67.17;101451.66;4931430;28;20391;-82
2023/05/09 03:34:35;;;;;;;;;;;;;;;18.82;66.92;101449.00;4923054;28;19968;-81
2023/05/09 03:37:05;;;;;;;;;;;;;;;18.49;66.62;101395.19;4925671;28;19930;-82
2023/05/09 03:39:33;;;;;;;;;;;;;;;18.90;66.19;101445.44;4953839;28;19930;-81
2023/05/09 03:41:59;;;;;;;;;;;;;;;18.91;66.97;101445.28;4932314;28;19926;-82
2023/05/09 03:44:30;;;;;;;;;;;;;;;18.92;65.95;101438.88;4925724;28;19925;-82
2023/05/09 03:47:01;;;;;;;;;;;;;;;19.03;67.69;101442.22;4934450;28;20333;-82
2023/05/09 03:49:41;;;;;;;;;;;;;;;18.98;65.77;101435.53;4930715;28;19922;-81
2023/05/09 03:52:08;;;;;;;;;;;;;;;18.91;65.81;101437.22;4939586;28;20332;-82
2023/05/09 03:54:38;;;;;;;;;;;;;;;19.02;69.28;101444.06;4922484;28;20121;-82
2023/05/09 03:57:14;;;;;;;;;;;;;;;18.98;65.87;101443.59;4914356;28;20205;-82
2023/05/09 03:59:44;;;;;;;;;;;;;;;18.94;66.76;101453.00;4915691;28;19976;-82
2023/05/09 04:02:17;;;;;;;;;;;;;;;18.87;66.37;101453.88;4934783;28;19933;-83
2023/05/09 04:04:56;;;;;;;;;;;;;;;18.87;65.88;101452.00;4915034;28;19921;-82
2023/05/09 04:07:37;;;;;;;;;;;;;;;18.79;66.08;101452.88;4894126;28;20340;-82
2023/05/09 04:10:03;;;;;;;;;;;;;;;18.75;66.14;101458.72;4893984;28;20210;-82
2023/05/09 04:12:35;;;;;;;;;;;;;;;18.33;66.13;101401.44;4903969;28;20146;-82
2023/05/09 04:15:06;;;;;;;;;;;;;;;18.61;66.67;101459.41;4913530;28;20236;-83
2023/05/09 04:17:32;;;;;;;;;;;;;;;18.60;66.56;101461.25;4943730;28;19977;-82
2023/05/09 04:20:00;;;;;;;;;;;;;;;18.50;66.36;101450.66;4933681;28;19922;-83
2023/05/09 04:22:29;;;;;;;;;;;;;;;18.61;66.83;101464.78;4962561;28;20456;-82
2023/05/09 04:24:58;;;;;;;;;;;;;;;18.64;68.78;101461.75;4951173;28;20215;-83
2023/05/09 04:27:26;;;;;;;;;;;;;;;18.73;66.32;101460.72;4943699;28;20032;-83
2023/05/09 04:29:53;;;;;;;;;;;;;;;18.68;65.82;101458.53;4931014;28;19926;-82
2023/05/09 04:32:22;;;;;;;;;;;;;;;18.99;66.80;101460.56;4938524;28;20020;-82
2023/05/09 04:34:55;;;;;;;;;;;;;;;19.05;65.86;101456.34;4936976;28;20020;-82
2023/05/09 04:37:24;;;;;;;;;;;;;;;18.92;65.40;101455.03;4917872;28;19922;-82
2023/05/09 04:39:51;;;;;;;;;;;;;;;18.88;65.77;101453.69;4943833;28;19952;-82
2023/05/09 04:42:18;;;;;;;;;;;;;;;18.78;65.85;101456.53;4933431;28;20600;-82
2023/05/09 04:44:51;;;;;;;;;;;;;;;18.74;66.28;101457.06;4939982;28;20001;-83
2023/05/09 04:47:25;;;;;;;;;;;;;;;18.62;66.53;101458.38;4932536;28;19972;-82
2023/05/09 04:49:51;;;;;;;;;;;;;;;18.58;66.53;101469.47;4948717;28;19928;-83
2023/05/09 04:52:18;;;;;;;;;;;;;;;18.55;66.42;101469.81;4965884;28;19933;-83
2023/05/09 04:54:45;;;;;;;;;;;;;;;18.49;66.29;101475.00;4943120;28;19928;-82
2023/05/09 04:57:14;;;;;;;;;;;;;;;18.40;66.69;101462.56;4943942;28;20731;-82
2023/05/09 04:59:44;;;;;;;;;;;;;;;18.29;67.82;101469.13;4958144;28;19929;-83
2023/05/09 05:02:11;;;;;;;;;;;;;;;18.22;67.15;101468.94;4961156;28;19929;-83
2023/05/09 05:04:38;;;;;;;;;;;;;;;18.22;67.48;101473.47;4934857;28;20673;-82
2023/05/09 05:07:07;;;;;;;;;;;;;;;18.23;67.75;101480.53;4938021;28;20293;-83
2023/05/09 05:09:34;;;;;;;;;;;;;;;18.12;68.17;101484.38;4953109;28;19925;-82
2023/05/09 05:12:01;;;;;;;;;;;;;;;18.08;68.18;101489.25;4947449;28;19929;-84
2023/05/09 05:14:30;;;;;;;;;;;;;;;18.10;68.38;101487.22;4947177;28;19921;-83
2023/05/09 05:16:57;;;;;;;;;;;;;;;18.07;68.56;101486.72;4974207;28;19929;-83
2023/05/09 05:19:29;;;;;;;;;;;;;;;18.08;68.75;101489.25;4954260;28;19930;-82
2023/05/09 05:21:56;;;;;;;;;;;;;;;18.07;68.29;101487.56;4947281;28;19921;-83
2023/05/09 05:24:23;;;;;;;;;;;;;;;17.99;68.59;101486.72;4961763;28;20419;-83
2023/05/09 05:26:50;;;;;;;;;;;;;;;17.96;69.10;101487.84;4946458;28;19921;-83
2023/05/09 05:29:20;;;;;;;;;;;;;;;17.57;68.85;101437.31;4930646;28;19980;-82
2023/05/09 05:31:48;;;;;;;;;;;;;;;17.89;69.54;101489.53;4939107;28;20008;-84
2023/05/09 05:34:15;;;;;;;;;;;;;;;17.95;69.29;101483.50;4968130;28;19922;-82
2023/05/09 05:36:42;;;;;;;;;;;;;;;18.01;68.30;101488.22;4967366;28;20584;-82
2023/05/09 05:39:08;;;;;;;;;;;;;;;17.94;69.19;101493.41;4947409;28;19929;-82
2023/05/09 05:41:35;;;;;;;;;;;;;;;17.96;69.43;101487.84;4967093;28;20012;-82
2023/05/09 05:44:02;;;;;;;;;;;;;;;18.01;69.00;101493.59;4961531;28;19926;-82
2023/05/09 05:46:31;;;;;;;;;;;;;;;18.09;68.73;101496.28;4946189;28;20009;-83
2023/05/09 05:49:01;;;;;;;;;;;;;;;18.09;67.90;101490.91;4963691;28;20410;-80
2023/05/09 05:51:31;;;;;;;;;;;;;;;18.01;68.79;101493.59;4952060;28;19929;-80
2023/05/09 05:53:57;;;;;;;;;;;;;;;18.01;68.50;101482.84;4947194;28;20415;-82
2023/05/09 05:56:24;;;;;;;;;;;;;;;17.96;68.99;101490.53;4967385;28;19992;-84
2023/05/09 05:58:54;;;;;;;;;;;;;;;17.26;68.54;101376.16;4957670;28;20248;-82
2023/05/09 06:01:21;;;;;;;;;;;;;;;17.99;68.48;101495.59;4960414;28;20282;-83
2023/05/09 06:03:53;;;;;;;;;;;;;;;18.02;68.75;101489.88;4962353;28;19931;-84
2023/05/09 06:06:32;;;;;;;;;;;;;;;18.11;68.23;101498.81;4954696;28;19921;-83
2023/05/09 06:08:59;;;;;;;;;;;;;;;18.09;68.19;101488.22;4964027;28;19929;-82
2023/05/09 06:11:30;;;;;;;;;;;;;;;17.79;68.00;101438.59;4955302;28;19932;-84
2023/05/09 06:14:01;;;;;;;;;;;;;;;18.07;67.96;101497.47;4961379;28;19926;-82
2023/05/09 06:16:27;;;;;;;;;;;;;;;18.03;68.70;101494.25;4964159;28;19932;-83
2023/05/09 06:18:57;;;;;;;;;;;;;;;17.66;68.40;101431.00;4958853;28;19929;-83
2023/05/09 06:21:26;;;;;;;;;;;;;;;18.04;68.02;101493.25;4957669;28;20178;-83
2023/05/09 06:23:53;;;;;;;;;;;;;;;18.08;67.98;101486.56;4966609;28;19929;-83
2023/05/09 06:26:39;;;;;;;;;;;;;;;18.02;68.13;101500.63;4967477;28;20020;-83
2023/05/09 06:29:06;;;;;;;;;;;;;;;17.97;68.06;101497.59;4971412;28;19932;-83
2023/05/09 06:31:37;;;;;;;;;;;;;;;17.97;68.85;101497.59;4963686;28;20193;-83
2023/05/09 06:34:04;;;;;;;;;;;;;;;17.96;68.41;101489.69;4948671;28;19937;-83
2023/05/09 06:36:36;;;;;;;;;;;;;;;17.98;68.44;101488.53;4966214;28;20033;-83
2023/05/09 06:39:05;;;;;;;;;;;;;;;18.01;69.18;101482.84;4964314;28;20027;-83
2023/05/09 06:41:32;;;;;;;;;;;;;;;18.06;68.56;101487.69;4942863;28;20458;-82
2023/05/09 06:44:01;;;;;;;;;;;;;;;17.78;67.90;101441.44;4940246;28;19921;-83
2023/05/09 06:46:41;;;;;;;;;;;;;;;17.77;67.77;101437.06;4972693;28;20343;-83
2023/05/09 06:49:08;;;;;;;;;;;;;;;18.22;68.76;101489.59;4961722;28;20588;-79
2023/05/09 06:51:34;;;;;;;;;;;;;;;18.33;67.65;101486.59;4959646;28;19929;-81
2023/05/09 06:54:01;;;;;;;;;;;;;;;18.38;67.81;101484.25;4953797;28;19976;-82
2023/05/09 06:56:28;;;;;;;;;;;;;;;18.45;67.75;101485.28;4947383;28;20199;-82
2023/05/09 06:58:57;;;;;;;;;;;;;;;18.68;68.27;101490.81;4952413;28;19922;-82
2023/05/09 07:01:26;;;;;;;;;;;;;;;18.74;66.34;101495.53;4941224;28;20364;-83
2023/05/09 07:03:53;;;;;;;;;;;;;;;18.80;66.82;101494.03;4944057;28;19929;-81
2023/05/09 07:06:20;;;;;;;;;;;;;;;18.92;66.37;101490.00;4952310;28;19922;-83
2023/05/09 07:08:47;;;;;;;;;;;;;;;19.16;67.21;101482.91;4950223;28;19933;-82
2023/05/09 07:11:13;;;;;;;;;;;;;;;19.18;66.28;101480.91;4951902;28;20606;-83
2023/05/09 07:13:45;;;;;;;;;;;;;;;18.89;65.24;101433.03;4954538;28;19926;-82
2023/05/09 07:16:12;;;;;;;;;;;;;;;19.10;66.68;101488.97;4962957;28;20456;-83
2023/05/09 07:18:39;;;;;;;;;;;;;;;19.19;67.67;101482.56;4962157;28;19922;-83
2023/05/09 07:21:08;;;;;;;;;;;;;;;19.42;68.50;101486.22;4925974;28;19954;-83
2023/05/09 07:23:34;;;;;;;;;;;;;;;19.51;66.66;101484.31;4979756;28;20128;-84
2023/05/09 07:26:01;;;;;;;;;;;;;;;19.67;66.65;101480.72;4963683;28;20109;-85
2023/05/09 07:28:35;;;;;;;;;;;;;;;19.60;65.39;101479.75;4992795;28;19925;-84
2023/05/09 07:31:05;;;;;;;;;;;;;;;19.20;65.08;101425.88;4962620;28;20101;-84
2023/05/09 07:33:32;;;;;;;;;;;;;;;19.62;64.78;101478.56;4950685;28;20442;-85
2023/05/09 07:36:01;;;;;;;;;;;;;;;19.69;66.66;101478.75;4954320;28;19922;-84
2023/05/09 07:38:29;;;;;;;;;;;;;;;19.64;66.61;101471.16;4956517;28;20220;-84
2023/05/09 07:40:59;;;;;;;;;;;;;;;19.61;64.28;101471.50;4958960;28;19953;-82
2023/05/09 07:43:37;;;;;;;;;;;;;;;19.38;65.25;101433.72;4936631;28;20384;-82
2023/05/09 07:46:09;;;;;;;;;;;;;;;19.58;64.94;101465.63;4926989;28;20143;-82
2023/05/09 07:48:39;;;;;;;;;;;;;;;19.34;65.37;101431.53;4945837;28;19922;-83
2023/05/09 07:51:07;;;;;;;;;;;;;;;19.72;65.66;101473.00;4944916;28;20067;-81
2023/05/09 07:53:36;;;;;;;;;;;;;;;19.87;64.60;101459.63;4931584;28;19928;-81
2023/05/09 07:56:05;;;;;;;;;;;;;;;19.85;64.09;101470.59;4957593;28;20139;-83
2023/05/09 07:58:36;;;;;;;;;;;;;;;20.01;65.52;101466.13;4941956;28;19975;-82
2023/05/09 08:01:07;;;;;;;;;;;;;;;20.18;64.43;101465.00;4957460;28;20122;-82
2023/05/09 08:03:33;;;;;;;;;;;;;;;20.41;65.49;101456.06;4925604;28;1109101;-82
2023/05/09 08:06:04;;;;;;;;;;;;;;;20.38;63.32;101446.47;4922443;28;19921;-82
2023/05/09 08:08:34;;;;;;;;;;;;;;;20.53;64.27;101454.59;4938149;28;19964;-82
2023/05/09 08:11:04;;;;;;;;;;;;;;;20.58;64.11;101441.44;4895709;28;19948;-83
2023/05/09 08:13:31;;;;;;;;;;;;;;;20.64;62.95;101446.13;4959983;28;19926;-83
2023/05/09 08:15:59;;;;;;;;;;;;;;;20.82;63.32;101442.25;4958389;28;19922;-82
2023/05/09 08:18:26;;;;;;;;;;;;;;;20.79;61.13;101438.06;4953173;28;20435;-82
2023/05/09 08:20:54;;;;;;;;;;;;;;;20.76;62.81;101440.31;4933621;28;19929;-80
2023/05/09 08:23:21;;;;;;;;;;;;;;;20.98;62.76;101447.50;4953749;28;20019;-81
2023/05/09 08:25:51;;;;;;;;;;;;;;;20.75;63.03;101438.59;4949409;28;19925;-82
2023/05/09 08:28:17;;;;;;;;;;;;;;;20.90;62.77;101436.78;4950420;28;19921;-82
2023/05/09 08:30:44;;;;;;;;;;;;;;;20.92;63.14;101443.69;4936800;28;19925;-83
2023/05/09 08:33:11;;;;;;;;;;;;;;;20.88;63.36;101442.38;4961650;28;20020;-83
2023/05/09 08:35:37;;;;;;;;;;;;;;;20.98;62.13;101450.19;4952065;28;20019;-82
2023/05/09 08:38:04;;;;;;;;;;;;;;;20.90;62.31;101450.28;4937467;28;19930;-81
2023/05/09 08:40:34;;;;;;;;;;;;;;;20.93;62.89;101455.31;4941822;28;19973;-82
2023/05/09 08:43:02;;;;;;;;;;;;;;;21.00;62.64;101450.84;4937004;28;20724;-82
2023/05/09 08:45:29;;;;;;;;;;;;;;;21.05;62.82;101451.13;4917274;28;20378;-82
2023/05/09 08:48:01;;;;;;;;;;;;;;;21.04;62.60;101448.59;4936863;28;19921;-82
2023/05/09 08:50:28;;;;;;;;;;;;;;;21.18;62.17;101441.56;4924251;28;19983;-82
2023/05/09 08:52:55;;;;;;;;;;;;;;;21.18;61.67;101442.38;4932538;28;19968;-82
2023/05/09 08:55:22;;;;;;;;;;;;;;;21.19;62.73;101441.38;4934023;28;19937;-81
2023/05/09 08:57:53;;;;;;;;;;;;;;;21.18;62.23;101436.16;4921660;28;19922;-82
2023/05/09 09:00:19;;;;;;;;;;;;;;;21.11;62.47;101433.34;4947797;28;19945;-82
2023/05/09 09:02:48;;;;;;;;;;;;;;;21.48;62.10;101434.28;4958573;28;20259;-81
2023/05/09 09:05:14;;;;;;;;;;;;;;;21.42;61.77;101437.75;4940556;28;20345;-82
2023/05/09 09:08:05;;;;;;;;;;;;;;;21.48;62.10;101437.84;4923733;28;20367;-82
2023/05/09 09:10:41;;;;;;;;;;;;;;;21.46;61.88;101431.78;4928432;28;20463;-81
2023/05/09 09:13:11;;;;;;;;;;;;;;;21.08;61.47;101350.88;4946888;28;19926;-82
2023/05/09 09:15:45;;;;;;;;;;;;;;;21.72;61.26;101435.84;4945524;28;20007;-82
2023/05/09 09:18:19;;;;;;;;;;;;;;;21.60;61.11;101435.47;4954782;28;19985;-82
2023/05/09 09:20:56;;;;;;;;;;;;;;;21.48;61.90;101427.06;4973228;28;20380;-82
2023/05/09 09:23:24;;;;;;;;;;;;;;;21.29;62.20;101430.28;4953554;28;20373;-81
2023/05/09 09:25:57;;;;;;;;;;;;;;;21.48;61.18;101416.25;4950188;28;19933;-82
2023/05/09 09:28:26;;;;;;;;;;;;;;;21.55;61.37;101411.75;4938898;28;19929;-82
2023/05/09 09:30:53;;;;;;;;;;;;;;;21.54;61.50;101415.47;4939624;28;20215;-82
2023/05/09 09:33:21;;;;;;;;;;;;;;;21.76;60.92;101410.94;4956264;28;20079;-83
2023/05/09 09:35:49;;;;;;;;;;;;;;;21.55;61.06;101411.75;4956413;28;20154;-82
2023/05/09 09:38:18;;;;;;;;;;;;;;;21.71;61.08;101410.69;4929869;28;19922;-82
2023/05/09 09:40:48;;;;;;;;;;;;;;;21.49;60.84;101408.97;4934375;28;20366;-82
2023/05/09 09:43:18;;;;;;;;;;;;;;;21.55;61.43;101417.16;4956518;28;20204;-82
2023/05/09 09:45:49;;;;;;;;;;;;;;;21.53;60.90;101412.94;4957668;28;19929;-83
2023/05/09 09:48:16;;;;;;;;;;;;;;;21.40;61.45;101402.81;4947563;28;19996;-82
2023/05/09 09:50:49;;;;;;;;;;;;;;;21.40;61.56;101407.41;4936154;28;19922;-81
2023/05/09 09:53:18;;;;;;;;;;;;;;;21.33;61.30;101401.88;4908664;28;19926;-81
2023/05/09 09:55:53;;;;;;;;;;;;;;;21.48;61.04;101410.84;4943674;28;20273;-82
2023/05/09 09:58:20;;;;;;;;;;;;;;;21.25;61.31;101410.06;4958856;28;20308;-82
2023/05/09 10:01:02;;;;;;;;;;;;;;;21.17;61.87;101413.72;4950915;28;20073;-82
2023/05/09 10:03:36;;;;;;;;;;;;;;;21.25;62.21;101399.28;4949132;28;19973;-82
2023/05/09 10:06:03;;;;;;;;;;;;;;;21.29;62.50;101406.00;4956212;28;20422;-82
2023/05/09 10:37:34;;;;;;;;;;;;;;;20.95;62.10;101336.34;4802330;29;20070;-82
2023/05/09 10:40:03;;;;;;;;;;;;;;;21.37;62.31;101384.28;4801918;29;19935;-81
2023/05/09 10:42:30;;;;;;;;;;;;;;;21.01;62.18;101333.75;4820295;29;19966;-82
2023/05/09 10:44:57;;;;;;;;;;;;;;;21.23;62.17;101379.72;4823479;29;20180;-82
2023/05/09 10:47:28;;;;;;;;;;;;;;;21.19;62.37;101386.50;4880179;28;19921;-81
2023/05/09 10:49:56;;;;;;;;;;;;;;;21.10;62.16;101378.53;4953380;28;19926;-82
2023/05/09 10:52:24;;;;;;;;;;;;;;;21.19;62.95;101373.00;4956246;28;20330;-82
2023/05/09 10:55:03;;;;;;;;;;;;;;;21.25;62.51;101366.88;4954824;28;19950;-83
2023/05/09 10:57:30;;;;;;;;;;;;;;;21.50;61.61;101365.53;4945732;28;19970;-82
2023/05/09 11:00:00;;;;;;;;;;;;;;;21.39;61.43;101317.44;4938076;28;20305;-81
2023/05/09 11:02:29;;;;;;;;;;;;;;;21.72;60.56;101357.47;4940765;28;19958;-80
2023/05/09 11:05:12;;;;;;;;;;;;;;;21.64;61.33;101361.13;4933585;28;19929;-82
2023/05/09 11:07:39;;;;;;;;;;;;;;;21.77;61.25;101350.47;4943021;28;19922;-81
2023/05/09 11:10:20;;;;;;;;;;;;;;;21.90;61.07;101351.66;4962146;28;20001;-81
2023/05/09 11:12:55;;;;;;;;;;;;;;;21.94;60.49;101351.06;4962642;28;19926;-81
2023/05/09 11:15:28;;;;;;;;;;;;;;;21.96;60.36;101343.56;4950190;28;19929;-80
2023/05/09 11:18:13;;;;;;;;;;;;;;;22.10;60.41;101341.00;4950746;28;19925;-81
2023/05/09 11:20:50;;;;;;;;;;;;;;;22.45;59.53;101343.81;4927192;28;20379;-81
2023/05/09 11:23:20;;;;;;;;;;;;;;;22.64;59.22;101326.88;4936286;28;19930;-80
2023/05/09 11:25:48;;;;;;;;;;;;;;;22.63;59.13;101338.75;4944268;28;20364;-81
2023/05/09 11:28:24;;;;;;;;;;;;;;;22.63;58.62;101332.50;4936885;28;19922;-82
2023/05/09 11:30:51;;;;;;;;;;;;;;;22.54;59.05;101329.94;4935299;28;19997;-80
2023/05/09 11:33:26;;;;;;;;;;;;;;;22.53;58.83;101327.44;4941775;28;19922;-81
2023/05/09 11:36:12;;;;;;;;;;;;;;;22.35;59.34;101315.22;4932897;28;20174;-81
2023/05/09 11:38:49;;;;;;;;;;;;;;;22.42;59.34;101314.47;4907865;28;20372;-81
2023/05/09 11:41:26;;;;;;;;;;;;;;;22.11;59.45;101270.53;4899298;28;20257;-81
2023/05/09 11:44:32;;;;;;;;;;;;;;;22.29;59.62;101316.03;4934080;28;20036;-81
2023/05/09 11:47:03;;;;;;;;;;;;;;;22.33;59.50;101317.31;4925890;28;19930;-80
2023/05/09 11:49:38;;;;;;;;;;;;;;;22.52;59.03;101310.34;4936686;28;20180;-81
2023/05/09 11:52:08;;;;;;;;;;;;;;;22.66;58.91;101311.28;4943436;28;19926;-81
2023/05/09 11:54:41;;;;;;;;;;;;;;;22.96;58.29;101303.75;4946890;28;19922;-81
2023/05/09 11:57:07;;;;;;;;;;;;;;;;;;4936098;28;20028;-80
2023/05/09 11:59:42;;;;;;;;;;;;;;;23.14;57.37;101297.81;4889808;28;20136;-81
2023/05/09 12:02:10;;;;;;;;;;;;;;;23.14;56.88;101286.97;4934726;28;20588;-82
2023/05/09 12:04:38;;;;;;;;;;;;;;;22.88;56.99;101238.09;4944019;28;20356;-81
2023/05/09 12:07:05;;;;;;;;;;;;;;;23.17;56.99;101283.03;4948924;28;20020;-82
2023/05/09 12:09:33;;;;;;;;;;;;;;;23.42;56.02;101275.16;4955241;28;20261;-82
2023/05/09 12:12:00;;;;;;;;;;;;;;;23.32;55.61;101261.19;4932515;28;19929;-81
2023/05/09 12:14:27;;;;;;;;;;;;;;;23.49;55.66;101257.06;4940438;28;20147;-82
2023/05/09 12:16:57;;;;;;;;;;;;;;;23.47;55.45;101248.28;4915273;28;20175;-81
2023/05/09 12:19:41;;;;;;;;;;;;;;;23.59;53.27;101243.97;4908672;28;20047;-82
2023/05/09 12:22:08;;;;;;;;;;;;;;;23.91;54.60;101241.50;4939136;28;19981;-82
2023/05/09 12:24:38;;;;;;;;;;;;;;;23.75;54.02;101244.63;4937731;28;20413;-81
2023/05/09 12:27:17;;;;;;;;;;;;;;;23.59;54.24;101202.44;4897427;28;20313;-81
2023/05/09 12:29:49;;;;;;;;;;;;;;;23.89;53.96;101238.16;4919739;28;20012;-82
2023/05/09 12:32:17;;;;;;;;;;;;;;;23.69;54.93;101235.41;4934355;28;19981;-82
2023/05/09 12:34:50;;;;;;;;;;;;;;;23.83;54.31;101237.09;4916111;28;19933;-81
2023/05/09 12:37:18;;;;;;;;;;;;;;;24.14;53.62;101237.50;4925222;28;19922;-81
2023/05/09 12:40:06;;;;;;;;;;;;;;;23.88;53.81;101180.41;4914342;28;19969;-81
2023/05/09 12:42:34;;;;;;;;;;;;;;;23.94;53.33;101167.88;4914344;28;19921;-82
2023/05/09 12:45:09;;;;;;;;;;;;;;;24.32;53.63;101207.81;4935524;28;20283;-81
2023/05/09 12:47:41;;;;;;;;;;;;;;;24.49;53.17;101217.22;4904375;28;20399;-81
2023/05/09 12:50:10;;;;;;;;;;;;;;;24.77;51.67;101204.38;4921952;28;19929;-81
2023/05/09 12:52:40;;;;;;;;;;;;;;;24.94;51.76;101206.38;4930799;28;20434;-82
2023/05/09 12:55:24;;;;;;;;;;;;;;;25.05;51.09;101202.16;4923224;28;20020;-83
2023/05/09 12:58:06;;;;;;;;;;;;;;;25.29;50.75;101189.69;4912759;28;20601;-81
2023/05/09 13:00:42;;;;;;;;;;;;;;;25.19;50.59;101145.03;4929985;28;19933;-82
2023/05/09 13:03:36;;;;;;;;;;;;;;;25.48;50.51;101179.72;4955077;28;20009;-82
2023/05/09 13:06:11;;;;;;;;;;;;;;;25.40;49.96;101190.03;4933167;28;19922;-82
2023/05/09 13:08:39;;;;;;;;;;;;;;;25.21;50.60;101180.97;4952508;28;19972;-82
2023/05/09 13:11:08;;;;;;;;;;;;;;;25.35;49.47;101172.50;4955942;28;20344;-82
2023/05/09 13:13:42;;;;;;;;;;;;;;;25.02;50.43;101122.97;4925374;28;19929;-83
2023/05/09 13:16:10;;;;;;;;;;;;;;;25.26;50.10;101162.13;4927991;28;20281;-81
2023/05/09 13:18:41;;;;;;;;;;;;;;;25.56;49.81;101162.31;4940614;28;19926;-82
2023/05/09 13:21:09;;;;;;;;;;;;;;;25.54;48.96;101153.56;4966089;28;20210;-82
2023/05/09 13:23:35;;;;;;;;;;;;;;;25.78;48.94;101154.59;4945891;28;19922;-80